createdAt,value
2023-01-26T00:00:42.380Z,25.54
2023-01-26T00:03:13.621Z,25.54
2023-01-26T00:05:44.161Z,25.46
2023-01-26T00:08:15.790Z,25.39
2023-01-26T00:10:51.572Z,25.35
2023-01-26T00:13:23.847Z,25.35
2023-01-26T00:15:54.992Z,25.27
2023-01-26T00:18:26.736Z,25.31
2023-01-26T00:21:00.768Z,25.37
2023-01-26T00:23:33.495Z,25.44
2023-01-26T00:26:05.752Z,25.46
2023-01-26T00:28:37.611Z,25.34
2023-01-26T00:31:14.370Z,25.39
2023-01-26T00:33:45.427Z,25.45
2023-01-26T00:36:16.600Z,25.48
2023-01-26T00:38:47.638Z,25.52
2023-01-26T00:41:36.486Z,25.54
2023-01-26T00:44:08.229Z,25.49
2023-01-26T00:46:39.513Z,25.42
2023-01-26T00:49:11.385Z,25.21
2023-01-26T00:51:42.424Z,25.13
2023-01-26T00:54:13.024Z,25.13
2023-01-26T00:56:43.330Z,25.18
2023-01-26T00:59:14.580Z,25.21
2023-01-26T01:01:50.002Z,25.18
2023-01-26T01:04:22.630Z,25.17
2023-01-26T01:06:53.819Z,25.20
2023-01-26T01:09:24.204Z,25.17
2023-01-26T01:11:55.355Z,25.23
2023-01-26T01:14:26.635Z,25.21
2023-01-26T01:16:57.596Z,25.28
2023-01-26T01:19:29.120Z,25.13
2023-01-26T01:22:00.127Z,25.17
2023-01-26T01:24:36.761Z,25.06
2023-01-26T01:27:07.598Z,25.07
2023-01-26T01:29:39.688Z,25.06
2023-01-26T01:32:11.386Z,25.06
2023-01-26T01:34:42.561Z,24.96
2023-01-26T01:37:12.705Z,24.96
2023-01-26T01:39:43.570Z,24.94
2023-01-26T01:42:14.452Z,24.87
2023-01-26T01:45:28.491Z,24.86
2023-01-26T01:48:05.148Z,24.91
2023-01-26T01:50:40.457Z,24.87
2023-01-26T01:53:16.856Z,24.96
2023-01-26T01:55:48.831Z,24.91
2023-01-26T01:58:20.394Z,24.90
2023-01-26T02:00:52.939Z,24.86
2023-01-26T02:03:25.639Z,24.82
2023-01-26T02:09:33.574Z,24.86
2023-01-26T02:12:10.703Z,24.87
2023-01-26T02:14:44.069Z,24.83
2023-01-26T02:17:21.562Z,24.80
2023-01-26T02:20:06.840Z,24.82
2023-01-26T02:22:48.089Z,24.82
2023-01-26T02:25:38.608Z,24.72
2023-01-26T02:28:11.145Z,24.70
2023-01-26T02:30:41.791Z,24.75
2023-01-26T02:33:20.163Z,24.76
2023-01-26T02:35:52.860Z,24.70
2023-01-26T02:38:27.960Z,24.67
2023-01-26T02:41:11.736Z,24.66
2023-01-26T02:43:42.616Z,24.67
2023-01-26T02:46:14.115Z,24.69
2023-01-26T02:49:03.789Z,24.69
2023-01-26T02:51:35.182Z,24.65
2023-01-26T02:54:05.794Z,24.62
2023-01-26T02:56:41.179Z,24.63
2023-01-26T02:59:13.192Z,24.65
2023-01-26T03:01:43.663Z,24.67
2023-01-26T03:04:13.927Z,24.62
2023-01-26T03:06:45.600Z,24.66
2023-01-26T03:09:17.400Z,24.56
2023-01-26T03:11:47.929Z,24.52
2023-01-26T03:14:19.576Z,24.52
2023-01-26T03:16:53.065Z,24.55
2023-01-26T03:19:44.170Z,24.57
2023-01-26T03:22:33.123Z,24.55
2023-01-26T03:25:22.307Z,24.49
2023-01-26T03:27:56.269Z,24.43
2023-01-26T03:30:27.066Z,24.43
2023-01-26T03:32:58.390Z,24.43
2023-01-26T03:35:28.784Z,24.43
2023-01-26T03:37:59.109Z,24.40
2023-01-26T03:41:00.963Z,24.36
2023-01-26T03:43:49.701Z,24.36
2023-01-26T03:46:38.743Z,24.36
2023-01-26T03:49:28.706Z,24.42
2023-01-26T03:52:18.096Z,24.42
2023-01-26T03:55:08.907Z,24.40
2023-01-26T03:57:39.959Z,24.33
2023-01-26T04:00:12.829Z,24.26
2023-01-26T04:03:02.241Z,24.22
2023-01-26T04:05:51.175Z,24.15
2023-01-26T04:08:25.825Z,24.15
2023-01-26T04:11:02.822Z,24.09
2023-01-26T04:13:52.588Z,24.19
2023-01-26T04:16:47.785Z,24.18
2023-01-26T04:19:37.354Z,24.08
2023-01-26T04:22:08.335Z,23.93
2023-01-26T04:24:41.510Z,23.88
2023-01-26T04:27:12.924Z,23.75
2023-01-26T04:29:44.971Z,23.67
2023-01-26T04:32:15.639Z,23.57
2023-01-26T04:34:46.267Z,23.47
2023-01-26T04:37:23.465Z,23.34
2023-01-26T04:39:54.753Z,23.24
2023-01-26T04:42:25.901Z,23.16
2023-01-26T04:44:58.594Z,23.15
2023-01-26T04:47:30.308Z,23.10
2023-01-26T04:50:00.582Z,23.09
2023-01-26T04:52:30.550Z,23.10
2023-01-26T04:55:01.672Z,23.05
2023-01-26T04:57:34.365Z,23.05
2023-01-26T05:00:07.445Z,23.05
2023-01-26T05:02:39.871Z,23.10
2023-01-26T05:05:12.289Z,23.13
2023-01-26T05:07:43.502Z,23.15
2023-01-26T05:10:17.459Z,23.40
2023-01-26T05:13:04.440Z,23.54
2023-01-26T05:16:06.215Z,23.59
2023-01-26T05:19:01.666Z,23.68
2023-01-26T05:21:59.388Z,23.60
2023-01-26T05:24:29.710Z,23.51
2023-01-26T05:27:20.368Z,23.54
2023-01-26T05:30:01.468Z,23.53
2023-01-26T05:32:35.823Z,23.45
2023-01-26T05:35:07.907Z,23.49
2023-01-26T05:37:38.319Z,23.47
2023-01-26T05:40:10.245Z,23.46
2023-01-26T05:42:44.069Z,23.40
2023-01-26T05:45:24.233Z,23.42
2023-01-26T05:47:58.721Z,23.39
2023-01-26T05:50:29.413Z,23.39
2023-01-26T05:53:21.384Z,23.36
2023-01-26T05:55:52.050Z,23.34
2023-01-26T05:58:25.215Z,23.23
2023-01-26T06:00:57.004Z,23.19
2023-01-26T06:03:33.716Z,23.03
2023-01-26T06:06:04.266Z,22.94
2023-01-26T06:08:41.088Z,22.91
2023-01-26T06:11:47.544Z,22.81
2023-01-26T06:14:53.850Z,22.73
2023-01-26T06:17:25.132Z,22.69
2023-01-26T06:20:00.936Z,22.61
2023-01-26T06:22:34.708Z,22.58
2023-01-26T06:25:06.489Z,22.54
2023-01-26T06:27:37.733Z,22.48
2023-01-26T06:30:13.966Z,22.41
2023-01-26T06:32:44.809Z,22.39
2023-01-26T06:35:16.469Z,22.33
2023-01-26T06:37:49.459Z,22.29
2023-01-26T06:40:21.507Z,22.23
2023-01-26T06:42:52.855Z,22.18
2023-01-26T06:45:23.762Z,22.14
2023-01-26T06:47:54.495Z,22.12
2023-01-26T06:50:28.606Z,22.09
2023-01-26T06:53:02.611Z,22.07
2023-01-26T06:55:46.667Z,21.97
2023-01-26T06:58:38.926Z,21.93
2023-01-26T07:01:28.593Z,21.89
2023-01-26T07:03:59.575Z,21.89
2023-01-26T07:06:29.733Z,21.89
2023-01-26T07:09:00.431Z,21.93
2023-01-26T07:11:32.468Z,21.89
2023-01-26T07:14:03.604Z,21.90
2023-01-26T07:16:33.969Z,21.93
2023-01-26T07:19:04.561Z,21.89
2023-01-26T07:21:37.455Z,21.88
2023-01-26T07:24:11.805Z,21.86
2023-01-26T07:26:42.518Z,21.92
2023-01-26T07:29:12.515Z,21.89
2023-01-26T07:31:45.868Z,21.88
2023-01-26T07:34:17.167Z,21.90
2023-01-26T07:36:47.815Z,21.97
2023-01-26T07:39:17.769Z,21.97
2023-01-26T07:41:51.154Z,21.96
2023-01-26T07:44:45.031Z,21.86
2023-01-26T07:47:18.400Z,21.86
2023-01-26T07:49:48.819Z,21.81
2023-01-26T07:52:19.655Z,21.78
2023-01-26T07:54:50.736Z,21.75
2023-01-26T07:57:21.196Z,21.75
2023-01-26T07:59:51.711Z,21.73
2023-01-26T08:02:22.937Z,21.67
2023-01-26T08:04:53.928Z,21.63
2023-01-26T08:07:24.523Z,21.65
2023-01-26T08:09:54.474Z,21.65
2023-01-26T08:12:25.567Z,21.67
2023-01-26T08:14:56.886Z,21.69
2023-01-26T08:17:31.968Z,21.69
2023-01-26T08:20:02.918Z,21.66
2023-01-26T08:22:35.645Z,21.67
2023-01-26T08:25:06.547Z,21.63
2023-01-26T08:27:36.761Z,21.61
2023-01-26T08:30:07.975Z,21.59
2023-01-26T08:32:39.754Z,21.59
2023-01-26T08:35:11.524Z,21.59
2023-01-26T08:37:42.152Z,21.61
2023-01-26T08:40:13.331Z,21.56
2023-01-26T08:45:41.758Z,21.45
2023-01-26T08:48:12.113Z,21.38
2023-01-26T08:50:42.921Z,21.34
2023-01-26T08:53:14.177Z,21.30
2023-01-26T08:55:45.160Z,21.31
2023-01-26T08:58:15.573Z,21.35
2023-01-26T09:00:45.545Z,21.38
2023-01-26T09:03:17.272Z,21.39
2023-01-26T09:05:48.426Z,21.34
2023-01-26T09:08:18.779Z,21.41
2023-01-26T09:10:49.404Z,21.42
2023-01-26T09:13:19.695Z,21.45
2023-01-26T09:15:50.189Z,21.49
2023-01-26T09:18:20.638Z,21.52
2023-01-26T09:20:52.422Z,21.56
2023-01-26T09:23:28.058Z,21.63
2023-01-26T09:25:59.185Z,21.66
2023-01-26T09:28:29.914Z,21.79
2023-01-26T09:31:12.098Z,21.88
2023-01-26T09:33:44.903Z,21.97
2023-01-26T09:36:16.294Z,22.09
2023-01-26T09:38:47.002Z,22.16
2023-01-26T09:41:44.704Z,22.30
2023-01-26T09:44:25.542Z,22.47
2023-01-26T09:47:16.237Z,22.62
2023-01-26T09:50:10.865Z,22.84
2023-01-26T09:52:54.885Z,23.01
2023-01-26T09:55:26.756Z,23.15
2023-01-26T09:58:40.452Z,23.30
2023-01-26T10:01:28.176Z,23.78
2023-01-26T10:04:41.472Z,24.39
2023-01-26T10:07:14.514Z,24.09
2023-01-26T10:09:51.614Z,24.18
2023-01-26T10:12:33.720Z,24.24
2023-01-26T10:15:04.185Z,24.33
2023-01-26T10:17:40.819Z,24.65
2023-01-26T10:20:25.603Z,24.93
2023-01-26T10:23:18.652Z,25.00
2023-01-26T10:25:52.906Z,25.03
2023-01-26T10:28:38.686Z,25.11
2023-01-26T10:31:19.000Z,25.31
2023-01-26T10:34:02.631Z,25.57
2023-01-26T10:36:34.618Z,25.89
2023-01-26T10:39:08.207Z,26.70
2023-01-26T10:41:39.426Z,27.67
2023-01-26T10:44:13.411Z,27.94
2023-01-26T10:46:45.156Z,27.25
2023-01-26T10:49:17.695Z,26.95
2023-01-26T10:52:06.972Z,26.91
2023-01-26T10:54:40.871Z,28.46
2023-01-26T10:57:34.247Z,28.92
2023-01-26T11:00:18.902Z,28.72
2023-01-26T11:02:57.772Z,28.89
2023-01-26T11:05:29.683Z,28.90
2023-01-26T11:08:05.034Z,28.72
2023-01-26T11:10:40.204Z,29.06
2023-01-26T11:13:23.872Z,29.27
2023-01-26T11:16:17.020Z,29.55
2023-01-26T11:19:03.854Z,30.45
2023-01-26T11:21:35.063Z,30.56
2023-01-26T11:24:25.011Z,30.98
2023-01-26T11:27:17.216Z,30.84
2023-01-26T11:30:01.409Z,30.77
2023-01-26T11:32:53.580Z,30.57
2023-01-26T11:35:47.895Z,30.88
2023-01-26T11:38:46.515Z,31.33
2023-01-26T11:41:29.677Z,31.96
2023-01-26T11:44:18.209Z,31.96
2023-01-26T11:47:17.911Z,32.13
2023-01-26T11:50:10.565Z,33.04
2023-01-26T11:53:05.416Z,33.23
2023-01-26T11:55:53.734Z,32.73
2023-01-26T11:58:35.007Z,33.26
2023-01-26T12:01:23.347Z,33.47
2023-01-26T12:03:55.214Z,32.98
2023-01-26T12:06:38.073Z,32.71
2023-01-26T12:09:19.823Z,32.29
2023-01-26T12:12:08.947Z,32.71
2023-01-26T12:14:46.426Z,32.31
2023-01-26T12:17:38.068Z,33.23
2023-01-26T12:20:08.764Z,33.22
2023-01-26T12:22:48.555Z,32.79
2023-01-26T12:25:40.428Z,33.13
2023-01-26T12:28:44.399Z,34.05
2023-01-26T12:31:25.219Z,34.28
2023-01-26T12:33:58.411Z,34.12
2023-01-26T12:36:54.751Z,34.59
2023-01-26T12:39:40.736Z,34.90
2023-01-26T12:42:35.828Z,34.49
2023-01-26T12:45:18.787Z,34.25
2023-01-26T12:47:52.820Z,33.99
2023-01-26T12:50:36.749Z,33.30
2023-01-26T12:53:31.479Z,34.46
2023-01-26T12:56:27.055Z,35.30
2023-01-26T12:59:03.368Z,35.24
2023-01-26T13:01:42.469Z,34.90
2023-01-26T13:04:18.326Z,35.03
2023-01-26T13:07:23.353Z,35.75
2023-01-26T13:10:21.600Z,36.34
2023-01-26T13:12:58.075Z,35.64
2023-01-26T13:15:31.336Z,35.33
2023-01-26T13:18:06.462Z,35.33
2023-01-26T13:20:48.285Z,34.76
2023-01-26T13:23:47.566Z,35.04
2023-01-26T13:26:21.061Z,34.38
2023-01-26T13:28:52.167Z,34.33
2023-01-26T13:31:58.825Z,34.39
2023-01-26T13:34:39.873Z,33.97
2023-01-26T13:37:34.517Z,34.22
2023-01-26T13:40:18.271Z,34.18
2023-01-26T13:43:17.527Z,34.77
2023-01-26T13:46:02.697Z,34.94
2023-01-26T13:48:45.496Z,35.15
2023-01-26T13:51:21.482Z,35.79
2023-01-26T13:54:03.307Z,36.06
2023-01-26T13:56:44.494Z,36.60
2023-01-26T13:59:20.643Z,36.82
2023-01-26T14:01:58.064Z,36.51
2023-01-26T14:04:31.725Z,36.43
2023-01-26T14:07:09.484Z,36.44
2023-01-26T14:09:51.827Z,36.95
2023-01-26T14:12:36.555Z,37.39
2023-01-26T14:15:10.099Z,37.28
2023-01-26T14:17:54.531Z,36.64
2023-01-26T14:20:41.060Z,36.44
2023-01-26T14:23:17.750Z,36.06
2023-01-26T14:26:01.295Z,36.43
2023-01-26T14:28:36.031Z,35.90
2023-01-26T14:31:22.514Z,35.92
2023-01-26T14:33:58.634Z,35.85
2023-01-26T14:36:35.200Z,36.72
2023-01-26T14:39:22.993Z,36.66
2023-01-26T14:41:54.029Z,37.19
2023-01-26T14:44:25.777Z,37.02
2023-01-26T14:46:59.842Z,37.30
2023-01-26T14:49:44.568Z,37.62
2023-01-26T14:52:28.548Z,37.84
2023-01-26T14:55:07.932Z,37.42
2023-01-26T14:57:39.718Z,37.62
2023-01-26T15:00:22.012Z,37.91
2023-01-26T15:02:57.890Z,38.37
2023-01-26T15:05:36.993Z,38.11
2023-01-26T15:08:29.120Z,37.97
2023-01-26T15:11:22.957Z,37.78
2023-01-26T15:13:57.946Z,37.73
2023-01-26T15:16:28.759Z,38.11
2023-01-26T15:19:04.435Z,38.01
2023-01-26T15:21:41.722Z,38.62
2023-01-26T15:24:16.911Z,38.45
2023-01-26T15:26:49.645Z,38.58
2023-01-26T15:29:27.937Z,38.42
2023-01-26T15:32:01.246Z,38.61
2023-01-26T15:34:43.355Z,38.83
2023-01-26T15:37:34.983Z,39.81
2023-01-26T15:40:06.549Z,39.06
2023-01-26T15:42:38.578Z,38.75
2023-01-26T15:45:26.910Z,39.27
2023-01-26T15:47:58.299Z,39.14
2023-01-26T15:50:29.068Z,39.17
2023-01-26T15:53:00.878Z,39.14
2023-01-26T15:55:34.772Z,38.78
2023-01-26T15:58:05.737Z,39.00
2023-01-26T16:00:35.959Z,39.39
2023-01-26T16:03:14.989Z,39.09
2023-01-26T16:05:49.537Z,39.34
2023-01-26T16:08:21.194Z,39.49
2023-01-26T16:10:52.171Z,39.99
2023-01-26T16:13:24.435Z,40.22
2023-01-26T16:15:56.419Z,40.09
2023-01-26T16:18:27.179Z,39.72
2023-01-26T16:20:57.626Z,39.64
2023-01-26T16:23:31.499Z,39.77
2023-01-26T16:26:02.149Z,39.87
2023-01-26T16:28:32.156Z,40.08
2023-01-26T16:31:04.294Z,39.82
2023-01-26T16:33:34.706Z,39.47
2023-01-26T16:36:05.160Z,39.00
2023-01-26T16:38:36.004Z,39.16
2023-01-26T16:41:07.915Z,39.29
2023-01-26T16:43:43.150Z,38.99
2023-01-26T16:46:14.262Z,39.64
2023-01-26T16:48:45.524Z,40.20
2023-01-26T16:51:22.844Z,39.56
2023-01-26T16:53:53.783Z,39.06
2023-01-26T16:56:26.598Z,38.66
2023-01-26T16:58:58.242Z,38.51
2023-01-26T17:01:37.982Z,37.90
2023-01-26T17:04:08.387Z,38.49
2023-01-26T17:06:39.599Z,39.61
2023-01-26T17:09:11.618Z,39.61
2023-01-26T17:11:43.813Z,39.58
2023-01-26T17:14:14.607Z,40.15
2023-01-26T17:16:45.351Z,40.12
2023-01-26T17:19:16.914Z,39.97
2023-01-26T17:21:47.114Z,39.92
2023-01-26T17:24:17.414Z,40.23
2023-01-26T17:26:48.287Z,40.71
2023-01-26T17:29:19.636Z,39.51
2023-01-26T17:31:50.585Z,38.62
2023-01-26T17:34:22.380Z,38.15
2023-01-26T17:36:53.485Z,38.62
2023-01-26T17:39:25.198Z,38.83
2023-01-26T17:41:55.820Z,39.99
2023-01-26T17:44:25.909Z,39.39
2023-01-26T17:46:59.637Z,39.13
2023-01-26T17:49:39.539Z,38.75
2023-01-26T17:52:14.335Z,38.08
2023-01-26T17:54:45.046Z,38.99
2023-01-26T17:57:16.436Z,39.84
2023-01-26T17:59:47.112Z,40.25
2023-01-26T18:02:18.165Z,39.64
2023-01-26T18:04:48.919Z,39.12
2023-01-26T18:07:21.496Z,38.56
2023-01-26T18:09:52.183Z,37.74
2023-01-26T18:12:23.317Z,37.28
2023-01-26T18:14:55.133Z,36.67
2023-01-26T18:17:27.497Z,36.10
2023-01-26T18:20:01.667Z,36.78
2023-01-26T18:22:32.814Z,37.12
2023-01-26T18:25:03.079Z,36.94
2023-01-26T18:32:29.257Z,38.69
2023-01-26T18:35:00.663Z,38.79
2023-01-26T18:37:32.845Z,39.62
2023-01-26T18:40:05.645Z,40.01
2023-01-26T18:42:36.726Z,39.37
2023-01-26T18:45:08.879Z,39.07
2023-01-26T18:47:40.095Z,38.54
2023-01-26T18:50:13.002Z,38.08
2023-01-26T18:52:44.669Z,37.60
2023-01-26T18:55:15.903Z,37.50
2023-01-26T18:57:46.624Z,37.39
2023-01-26T19:00:17.798Z,37.25
2023-01-26T19:02:49.986Z,36.90
2023-01-26T19:05:20.581Z,36.43
2023-01-26T19:07:50.471Z,36.30
2023-01-26T19:10:20.806Z,35.88
2023-01-26T19:12:52.280Z,35.62
2023-01-26T19:15:23.194Z,35.23
2023-01-26T19:17:54.127Z,34.93
2023-01-26T19:20:24.472Z,34.52
2023-01-26T19:22:56.717Z,34.32
2023-01-26T19:25:28.181Z,34.15
2023-01-26T19:28:00.073Z,33.98
2023-01-26T19:30:31.490Z,33.87
2023-01-26T19:33:20.864Z,33.72
2023-01-26T19:35:52.555Z,33.58
2023-01-26T19:38:23.403Z,33.54
2023-01-26T19:40:54.329Z,33.39
2023-01-26T19:43:25.062Z,33.26
2023-01-26T19:45:58.280Z,33.14
2023-01-26T19:48:31.136Z,32.99
2023-01-26T19:51:20.545Z,32.82
2023-01-26T19:53:55.921Z,32.66
2023-01-26T19:56:33.097Z,32.55
2023-01-26T19:59:06.962Z,32.44
2023-01-26T20:01:37.604Z,32.32
2023-01-26T20:04:12.093Z,32.23
2023-01-26T20:06:43.392Z,32.13
2023-01-26T20:09:14.296Z,31.98
2023-01-26T20:11:44.632Z,31.94
2023-01-26T20:14:16.077Z,31.84
2023-01-26T20:16:47.335Z,31.03
2023-01-26T20:19:18.188Z,30.63
2023-01-26T20:21:48.790Z,29.89
2023-01-26T20:24:19.541Z,29.28
2023-01-26T20:26:50.758Z,28.87
2023-01-26T20:29:21.739Z,28.59
2023-01-26T20:31:52.648Z,28.19
2023-01-26T20:34:23.829Z,27.69
2023-01-26T20:36:58.946Z,27.23
2023-01-26T20:39:30.303Z,26.60
2023-01-26T20:42:00.753Z,25.92
2023-01-26T20:44:31.179Z,25.44
2023-01-26T20:47:01.967Z,24.97
2023-01-26T20:49:32.402Z,24.14
2023-01-26T20:52:02.394Z,23.56
2023-01-26T20:54:33.717Z,23.33
2023-01-26T20:57:05.006Z,23.12
2023-01-26T20:59:35.957Z,22.99
2023-01-26T21:02:06.483Z,22.98
2023-01-26T21:04:37.845Z,22.96
2023-01-26T21:07:09.317Z,22.81
2023-01-26T21:09:40.454Z,22.76
2023-01-26T21:12:11.611Z,23.13
2023-01-26T21:14:45.300Z,23.20
2023-01-26T21:17:18.712Z,23.24
2023-01-26T21:19:49.155Z,22.84
2023-01-26T21:22:19.049Z,22.61
2023-01-26T21:24:49.879Z,22.52
2023-01-26T21:27:20.302Z,22.50
2023-01-26T21:29:50.393Z,22.47
2023-01-26T21:32:20.783Z,22.44
2023-01-26T21:34:50.861Z,22.65
2023-01-26T21:37:21.548Z,22.92
2023-01-26T21:39:52.094Z,23.12
2023-01-26T21:42:23.105Z,23.08
2023-01-26T21:45:13.264Z,23.03
2023-01-26T21:47:44.626Z,22.84
2023-01-26T21:50:14.986Z,22.72
2023-01-26T21:53:12.873Z,22.57
2023-01-26T21:55:43.249Z,22.55
2023-01-26T21:58:31.408Z,22.62
2023-01-26T22:01:09.896Z,22.61
2023-01-26T22:03:41.905Z,22.65
2023-01-26T22:06:13.256Z,23.06
2023-01-26T22:08:44.035Z,23.20
2023-01-26T22:11:18.051Z,23.10
2023-01-26T22:13:50.535Z,23.16
2023-01-26T22:16:21.220Z,23.26
2023-01-26T22:18:51.552Z,23.03
2023-01-26T22:21:23.224Z,23.16
2023-01-26T22:23:56.839Z,23.10
2023-01-26T22:26:27.598Z,23.23
2023-01-26T22:29:00.156Z,23.12
2023-01-26T22:31:32.988Z,23.01
2023-01-26T22:34:04.327Z,22.96
2023-01-26T22:36:35.019Z,22.94
2023-01-26T22:39:05.990Z,22.95
2023-01-26T22:41:38.767Z,22.98
2023-01-26T22:44:12.291Z,22.92
2023-01-26T22:46:42.988Z,22.94
2023-01-26T22:49:13.047Z,22.87
2023-01-26T22:51:44.732Z,22.79
2023-01-26T22:54:16.512Z,22.76
2023-01-26T22:56:53.720Z,22.68
2023-01-26T22:59:24.224Z,22.68
2023-01-26T23:01:54.235Z,22.68
2023-01-26T23:04:25.798Z,22.78
2023-01-26T23:06:56.009Z,23.03
2023-01-26T23:09:27.018Z,23.08
2023-01-26T23:12:04.198Z,23.12
2023-01-26T23:14:36.608Z,23.05
2023-01-26T23:17:09.300Z,22.94
2023-01-26T23:19:40.008Z,22.76
2023-01-26T23:22:09.980Z,22.88
2023-01-26T23:24:40.589Z,22.88
2023-01-26T23:27:11.213Z,22.98
2023-01-26T23:29:42.940Z,22.96
2023-01-26T23:32:14.273Z,22.98
2023-01-26T23:34:44.857Z,22.85
2023-01-26T23:37:15.504Z,22.81
2023-01-26T23:39:46.632Z,22.76
2023-01-26T23:42:16.659Z,22.78
2023-01-26T23:44:47.180Z,22.71
2023-01-26T23:47:17.788Z,22.68
2023-01-26T23:49:49.280Z,22.79
2023-01-26T23:52:20.344Z,22.75
2023-01-26T23:54:50.861Z,22.72
2023-01-26T23:57:21.278Z,22.78
2023-01-26T23:59:52.236Z,22.71
